Time;durP1;ratioP1;P1;durP2;ratioP2;P2;SDS_P1;SDS_P2;PMS_P1;PMS_P2;Temp;Humidity;BMP_temperature;BMP_pressure;BME280_temperature;BME280_humidity;BME280_pressure;Samples;Min_cycle;Max_cycle;Signal;HPM_P1;HPM_P2
2022/12/31 00:00:20;;;;;;;268.30;22.77;;;;;;;3.66;100.00;99311.38;4438811;32;20494;-68
2022/12/31 00:02:48;;;;;;;315.50;27.25;;;;;;;3.55;100.00;99304.16;4438519;32;20089;-68
2022/12/31 00:05:15;;;;;;;257.98;21.55;;;;;;;3.60;100.00;99311.72;4438665;32;20116;-68
2022/12/31 00:07:42;;;;;;;210.95;20.17;;;;;;;3.65;100.00;99312.31;4438874;32;20143;-68
2022/12/31 00:10:08;;;;;;;232.98;20.33;;;;;;;3.49;100.00;99308.84;4427595;32;20439;-68
2022/12/31 00:12:35;;;;;;;286.17;23.60;;;;;;;3.57;100.00;99313.63;4422858;32;20180;-68
2022/12/31 00:15:03;;;;;;;338.30;26.42;;;;;;;3.60;100.00;99311.72;4423246;32;20132;-68
2022/12/31 00:17:30;;;;;;;265.83;22.65;;;;;;;3.48;100.00;99315.78;4422779;32;20112;-68
2022/12/31 00:19:57;;;;;;;284.35;21.87;;;;;;;3.48;100.00;99325.28;4423193;32;20180;-68
2022/12/31 00:22:24;;;;;;;201.75;22.58;;;;;;;3.54;100.00;99337.94;4435434;32;20101;-68
2022/12/31 00:24:51;;;;;;;233.57;20.98;;;;;;;3.58;100.00;99339.47;4438704;32;20180;-68
2022/12/31 00:27:21;;;;;;;281.83;23.92;;;;;;;3.61;100.00;99333.28;4438615;32;20119;-68
2022/12/31 00:29:48;;;;;;;222.88;22.48;;;;;;;3.62;100.00;99333.22;4438459;32;20085;-68
2022/12/31 00:32:15;;;;;;;299.98;22.33;;;;;;;3.58;100.00;99349.00;4438516;32;20106;-68
2022/12/31 00:34:42;;;;;;;277.60;22.70;;;;;;;3.61;100.00;99347.06;4438540;32;20089;-68
2022/12/31 00:37:09;;;;;;;272.08;24.83;;;;;;;3.53;100.00;99338.87;4437692;32;20097;-68
2022/12/31 00:39:36;;;;;;;158.27;20.62;;;;;;;3.60;100.00;99345.37;4438498;32;20514;-68
2022/12/31 00:42:04;;;;;;;215.32;21.62;;;;;;;3.63;100.00;99349.59;4438363;32;20165;-68
2022/12/31 00:44:31;;;;;;;129.98;18.87;;;;;;;3.62;100.00;99343.56;4438338;32;20554;-68
2022/12/31 00:46:58;;;;;;;149.82;19.67;;;;;;;3.58;100.00;99342.03;4438524;32;20093;-68
2022/12/31 00:49:25;;;;;;;173.70;21.98;;;;;;;3.62;100.00;99359.13;4438172;32;20550;-68
2022/12/31 00:51:52;;;;;;;244.93;23.73;;;;;;;3.50;100.00;99350.22;4438466;32;20162;-68
2022/12/31 00:54:19;;;;;;;233.35;23.73;;;;;;;3.57;100.00;99358.50;4438084;32;20161;-68
2022/12/31 00:56:46;;;;;;;135.32;19.58;;;;;;;3.53;100.00;99351.81;4438568;32;20119;-68
2022/12/31 00:59:13;;;;;;;155.90;22.37;;;;;;;3.63;100.00;99355.59;4438202;32;20101;-68
2022/12/31 01:01:41;;;;;;;186.45;21.83;;;;;;;3.72;100.00;99357.72;4438204;32;20169;-68
2022/12/31 01:04:12;;;;;;;179.98;21.62;;;;;;;3.66;100.00;99363.19;4438295;32;20113;-68
2022/12/31 01:06:57;;;;;;;208.65;21.87;;;;;;;3.65;100.00;99356.38;4438347;32;20101;-68
2022/12/31 01:09:24;;;;;;;175.30;22.27;;;;;;;3.53;100.00;99357.00;4431649;32;20161;-68
2022/12/31 01:11:51;;;;;;;142.15;19.77;;;;;;;3.51;100.00;99356.22;4422909;32;20169;-68
2022/12/31 01:14:19;;;;;;;211.62;23.42;;;;;;;3.64;100.00;99362.47;4422626;32;20538;-68
2022/12/31 01:16:49;;;;;;;149.48;23.05;;;;;;;3.55;100.00;99357.75;4422938;32;20121;-68
2022/12/31 01:19:27;;;;;;;234.18;22.67;;;;;;;3.66;100.00;99360.63;4422544;32;20116;-68
2022/12/31 01:21:55;;;;;;;175.40;21.62;;;;;;;3.61;100.00;99362.63;4432085;32;20524;-68
2022/12/31 01:24:23;;;;;;;129.90;20.05;;;;;;;3.64;100.00;99367.63;4437754;32;20142;-68
2022/12/31 01:26:50;;;;;;;174.15;21.48;;;;;;;3.72;100.00;99370.69;4437999;32;20438;-68
2022/12/31 01:29:18;;;;;;;102.18;18.02;;;;;;;3.73;100.00;99374.13;4438032;32;20165;-68
2022/12/31 01:31:45;;;;;;;149.40;18.67;;;;;;;3.73;100.00;99361.16;4437959;32;20846;-68
2022/12/31 01:34:12;;;;;;;162.45;21.62;;;;;;;3.76;100.00;99375.72;4437916;32;20098;-68
2022/12/31 01:36:39;;;;;;;157.50;20.15;;;;;;;3.83;100.00;99380.50;4437825;32;20132;-68
2022/12/31 01:39:08;;;;;;;207.98;21.45;;;;;;;3.77;100.00;99372.19;4437910;32;20533;-68
2022/12/31 01:41:38;;;;;;;110.45;19.27;;;;;;;3.80;100.00;99383.25;4437848;32;20117;-68
2022/12/31 01:44:11;;;;;;;99.75;17.15;;;;;;;3.78;100.00;99376.47;4437716;32;20146;-68
2022/12/31 01:46:59;;;;;;;131.07;20.65;;;;;;;3.82;100.00;99373.63;4437877;32;20388;-68
2022/12/31 01:49:40;;;;;;;110.30;18.33;;;;;;;3.82;100.00;99373.63;4438451;32;20172;-68
2022/12/31 01:52:15;;;;;;;90.35;17.00;;;;;;;3.93;100.00;99369.66;4439518;32;20141;-68
2022/12/31 01:54:46;;;;;;;188.05;22.30;;;;;;;3.97;100.00;99376.34;4439527;32;20522;-68
2022/12/31 01:57:14;;;;;;;182.93;21.75;;;;;;;3.85;100.00;99367.47;4425892;32;20101;-68
2022/12/31 01:59:42;;;;;;;106.95;18.20;;;;;;;3.86;100.00;99357.00;4439485;32;20128;-68
2022/12/31 02:02:11;;;;;;;103.97;16.98;;;;;;;3.80;100.00;99359.06;4439635;32;20156;-68
2022/12/31 02:04:39;;;;;;;93.80;17.27;;;;;;;3.84;100.00;99360.59;4439287;32;20132;-68
2022/12/31 02:07:07;;;;;;;117.43;18.60;;;;;;;3.91;100.00;99367.97;4425811;32;20101;-68
2022/12/31 02:09:37;;;;;;;94.72;16.23;;;;;;;3.85;100.00;99364.88;4431841;32;20124;-68
2022/12/31 02:12:05;;;;;;;125.57;18.80;;;;;;;3.86;100.00;99376.87;4410426;32;20168;-68
2022/12/31 02:14:39;;;;;;;72.07;16.70;;;;;;;3.84;100.00;99379.56;4410165;32;20133;-68
2022/12/31 02:17:28;;;;;;;107.22;17.30;;;;;;;3.87;100.00;99386.34;4410195;32;20148;-68
2022/12/31 02:20:10;;;;;;;131.65;18.08;;;;;;;3.93;100.00;99385.22;4423859;32;20115;-68
2022/12/31 02:22:37;;;;;;;131.85;19.25;;;;;;;3.86;100.00;99385.53;4437779;32;20121;-68
2022/12/31 02:25:23;;;;;;;94.37;17.60;;;;;;;3.88;100.00;99393.22;4439159;32;20101;-68
2022/12/31 02:28:03;;;;;;;110.72;17.67;;;;;;;3.81;100.00;99387.50;4439543;32;20093;-68
2022/12/31 02:30:31;;;;;;;123.40;18.12;;;;;;;3.91;100.00;99387.88;4439434;32;20147;-68
2022/12/31 02:33:37;;;;;;;91.90;17.83;;;;;;;3.79;100.00;99378.97;4425610;32;20093;-68
2022/12/31 02:36:09;;;;;;;86.07;15.85;;;;;;;3.87;100.00;99382.00;4436742;32;20139;-68
2022/12/31 02:38:40;;;;;;;118.43;17.90;;;;;;;3.82;100.00;99381.41;4425528;32;20097;-68
2022/12/31 02:41:48;;;;;;;96.28;15.85;;;;;;;3.98;100.00;99393.56;4425599;32;20093;-68
2022/12/31 02:43:59;;;;;;;126.18;17.73;;;;;;;3.86;100.00;99389.84;4439249;32;20592;-68
2022/12/31 02:46:40;;;;;;;176.10;18.17;;;;;;;3.77;100.00;99390.31;4439277;32;20093;-68
2022/12/31 02:49:17;;;;;;;127.72;18.98;;;;;;;3.70;100.00;99392.41;4439252;32;20089;-68
2022/12/31 02:51:52;;;;;;;139.85;18.83;;;;;;;3.81;100.00;99384.06;4425441;32;20352;-68
2022/12/31 02:55:02;;;;;;;131.20;18.65;;;;;;;3.79;100.00;99380.75;4425377;32;20081;-68
2022/12/31 02:57:48;;;;;;;86.85;15.07;;;;;;;3.70;100.00;99372.50;4363724;32;20152;-68
2022/12/31 03:03:03;;;;;;;89.65;16.65;;;;;;;3.75;100.00;99371.44;4365624;32;20483;-68
2022/12/31 03:05:33;;;;;;;83.28;16.45;;;;;;;3.77;100.00;99380.81;4363581;32;20118;-68
2022/12/31 03:08:00;;;;;;;109.97;17.33;;;;;;;3.91;100.00;99364.53;4363664;32;20130;-68
2022/12/31 03:10:28;;;;;;;77.18;18.60;;;;;;;3.95;100.00;99370.41;4350746;32;20111;-68
2022/12/31 03:12:56;;;;;;;116.37;18.67;;;;;;;3.94;100.00;99385.13;4360887;32;20172;-68
2022/12/31 03:15:27;;;;;;;80.20;16.92;;;;;;;3.90;100.00;99373.22;4360633;32;20401;-68
2022/12/31 03:18:08;;;;;;;139.30;18.80;;;;;;;3.97;100.00;99347.84;4360824;32;20100;-68
2022/12/31 03:23:34;;;;;;;126.53;17.73;;;;;;;4.06;100.00;99365.50;4375734;32;20106;-68
2022/12/31 03:26:09;;;;;;;128.65;19.17;;;;;;;3.92;100.00;99353.25;4375700;32;20480;-68
2022/12/31 03:28:42;;;;;;;176.77;23.33;;;;;;;3.98;100.00;99365.06;4375822;32;20119;-68
2022/12/31 03:31:10;;;;;;;86.70;16.87;;;;;;;3.97;100.00;99364.22;4375479;32;20504;-68
2022/12/31 03:33:39;;;;;;;114.22;18.23;;;;;;;3.79;100.00;99357.41;4403410;32;20131;-68
2022/12/31 03:36:12;;;;;;;185.55;20.62;;;;;;;3.85;100.00;99357.91;4438594;32;20097;-68
2022/12/31 03:38:40;;;;;;;124.38;17.98;;;;;;;3.80;100.00;99348.69;4439086;32;20146;-68
2022/12/31 03:41:09;;;;;;;142.02;17.65;;;;;;;3.76;100.00;99362.75;4438742;32;20532;-68
2022/12/31 03:43:37;;;;;;;114.35;18.08;;;;;;;3.81;100.00;99366.75;4438785;32;20097;-68
2022/12/31 03:46:04;;;;;;;156.02;19.83;;;;;;;3.77;100.00;99369.59;4438758;32;20459;-68
2022/12/31 03:48:31;;;;;;;100.05;17.10;;;;;;;3.70;100.00;99361.31;4438635;32;20101;-68
2022/12/31 03:50:58;;;;;;;135.68;17.17;;;;;;;3.77;100.00;99361.81;4438711;32;20815;-68
2022/12/31 03:53:26;;;;;;;115.43;17.70;;;;;;;3.76;100.00;99371.34;4438656;32;20101;-68
2022/12/31 03:55:54;;;;;;;148.15;18.83;;;;;;;3.68;100.00;99363.97;4438765;32;20184;-68
2022/12/31 03:58:21;;;;;;;116.28;18.12;;;;;;;3.67;100.00;99364.06;4438724;32;20089;-68
2022/12/31 04:00:49;;;;;;;132.27;19.80;;;;;;;3.78;100.00;99364.34;4438419;32;20447;-68
2022/12/31 04:03:17;;;;;;;130.00;18.90;;;;;;;3.70;100.00;99359.56;4438754;32;20162;-68
2022/12/31 04:05:44;;;;;;;109.80;18.12;;;;;;;3.69;100.00;99352.72;4438727;32;20451;-68
2022/12/31 04:08:11;;;;;;;147.23;20.88;;;;;;;3.68;100.00;99350.16;4438701;32;20446;-68
2022/12/31 04:10:38;;;;;;;104.43;18.80;;;;;;;3.69;100.00;99352.72;4424379;32;20132;-68
2022/12/31 04:13:05;;;;;;;145.10;17.70;;;;;;;3.75;100.00;99351.53;4422338;32;20093;-68
2022/12/31 04:15:33;;;;;;;135.90;20.50;;;;;;;3.67;100.00;99354.53;4423143;32;20173;-68
2022/12/31 04:18:00;;;;;;;110.93;18.02;;;;;;;3.70;100.00;99359.56;4422916;32;20090;-68
2022/12/31 04:20:27;;;;;;;135.05;18.92;;;;;;;3.68;100.00;99366.56;4423029;32;20981;-68
2022/12/31 04:22:54;;;;;;;79.28;16.87;;;;;;;3.65;100.00;99373.66;4407779;32;20097;-68
2022/12/31 04:25:21;;;;;;;98.70;16.87;;;;;;;3.73;100.00;99380.12;4407718;32;20094;-68
2022/12/31 04:27:49;;;;;;;130.10;20.02;;;;;;;3.76;100.00;99376.53;4407908;32;20094;-68
2022/12/31 04:30:17;;;;;;;120.07;19.35;;;;;;;3.78;100.00;99382.47;4408265;32;20093;-68
2022/12/31 04:32:44;;;;;;;126.65;18.90;;;;;;;3.83;100.00;99387.41;4407822;32;20106;-68
2022/12/31 04:35:11;;;;;;;79.57;16.85;;;;;;;3.80;100.00;99383.25;4407970;32;20085;-68
2022/12/31 04:37:39;;;;;;;70.28;16.40;;;;;;;3.97;100.00;99389.31;4407635;32;20120;-68
2022/12/31 04:40:07;;;;;;;139.62;19.83;;;;;;;4.06;100.00;99388.84;4407937;32;20125;-68
2022/12/31 04:42:35;;;;;;;94.20;18.60;;;;;;;4.01;100.00;99396.84;4407515;32;20133;-68
2022/12/31 04:45:02;;;;;;;107.45;18.75;;;;;;;3.89;100.00;99397.47;4407768;32;20093;-68
2022/12/31 04:47:30;;;;;;;67.80;15.95;;;;;;;3.76;100.00;99412.00;4407718;32;20090;-68
2022/12/31 04:49:57;;;;;;;122.32;19.05;;;;;;;3.73;100.00;99405.22;4407731;32;20101;-68
2022/12/31 04:52:24;;;;;;;112.72;18.55;;;;;;;3.69;100.00;99408.84;4407801;32;20106;-68
2022/12/31 04:54:52;;;;;;;95.93;17.90;;;;;;;3.71;100.00;99407.88;4407616;32;20155;-68
2022/12/31 04:57:19;;;;;;;113.82;17.80;;;;;;;3.82;100.00;99415.09;4407454;32;20221;-68
2022/12/31 04:59:46;;;;;;;170.85;19.58;;;;;;;3.84;100.00;99412.44;4408107;32;20095;-68
2022/12/31 05:02:13;;;;;;;149.65;20.10;;;;;;;3.77;100.00;99411.91;4407680;32;20176;-68
2022/12/31 05:04:42;;;;;;;100.80;17.50;;;;;;;3.79;100.00;99415.25;4407557;32;20403;-67
2022/12/31 05:07:09;;;;;;;112.18;19.42;;;;;;;3.87;100.00;99425.22;4407665;32;20152;-68
2022/12/31 05:09:36;;;;;;;155.32;19.73;;;;;;;3.84;100.00;99441.75;4415105;32;20110;-68
2022/12/31 05:12:04;;;;;;;106.57;18.25;;;;;;;3.81;100.00;99438.50;4422875;32;20678;-68
2022/12/31 05:14:31;;;;;;;146.15;18.98;;;;;;;3.78;100.00;99439.50;4408901;32;20101;-68
2022/12/31 05:16:59;;;;;;;131.85;18.95;;;;;;;3.87;100.00;99445.97;4422607;32;20081;-68
2022/12/31 05:19:27;;;;;;;138.27;18.62;;;;;;;3.88;100.00;99445.06;4422886;32;20114;-67
2022/12/31 05:24:40;;;;;;;162.75;22.60;;;;;;;3.79;100.00;99446.34;4437986;32;20142;-68
2022/12/31 05:27:07;;;;;;;196.65;20.45;;;;;;;3.75;100.00;99441.41;4437921;32;20508;-67
2022/12/31 05:29:34;;;;;;;131.20;18.75;;;;;;;3.69;100.00;99439.94;4438195;32;20753;-68
2022/12/31 05:32:01;;;;;;;141.95;19.42;;;;;;;3.76;100.00;99443.09;4438092;32;20102;-67
2022/12/31 05:34:28;;;;;;;207.98;22.60;;;;;;;3.78;100.00;99461.97;4437821;32;20165;-68
2022/12/31 05:36:55;;;;;;;276.88;23.77;;;;;;;3.73;100.00;99467.41;4437864;32;20481;-68
2022/12/31 05:39:23;;;;;;;174.48;22.45;;;;;;;3.68;100.00;99461.59;4437889;32;20097;-68
2022/12/31 05:41:50;;;;;;;186.43;20.45;;;;;;;3.83;100.00;99472.94;4438091;32;20117;-68
2022/12/31 05:44:17;;;;;;;179.60;22.35;;;;;;;3.73;100.00;99477.75;4437916;32;20471;-67
2022/12/31 05:46:46;;;;;;;186.88;21.60;;;;;;;3.78;100.00;99480.13;4437684;32;20207;-68
2022/12/31 05:49:13;;;;;;;130.30;20.85;;;;;;;3.78;100.00;99478.34;4437881;32;20086;-68
2022/12/31 05:51:40;;;;;;;178.32;22.33;;;;;;;3.87;100.00;99485.66;4437893;32;20155;-68
2022/12/31 05:54:07;;;;;;;171.05;20.88;;;;;;;3.82;100.00;99481.66;4437695;32;20161;-67
2022/12/31 05:56:35;;;;;;;188.45;24.27;;;;;;;3.77;100.00;99491.41;4437724;32;20116;-68
2022/12/31 05:59:03;;;;;;;200.62;24.27;;;;;;;3.80;100.00;99489.50;4437495;32;20153;-68
2022/12/31 06:01:30;;;;;;;258.73;24.15;;;;;;;3.86;100.00;99483.16;4437506;32;20228;-68
2022/12/31 06:03:57;;;;;;;206.55;23.27;;;;;;;3.85;100.00;99491.88;4437361;32;20101;-68
2022/12/31 06:06:24;;;;;;;157.85;21.58;;;;;;;3.80;100.00;99486.06;4437407;32;20139;-68
2022/12/31 06:08:52;;;;;;;180.80;21.58;;;;;;;3.86;100.00;99489.19;4434616;32;20506;-68
2022/12/31 06:11:19;;;;;;;175.00;20.65;;;;;;;3.83;100.00;99494.53;4422193;32;20576;-68
2022/12/31 06:13:46;;;;;;;189.95;20.67;;;;;;;3.83;100.00;99497.13;4421925;32;20101;-67
2022/12/31 06:16:13;;;;;;;240.32;24.70;;;;;;;3.74;100.00;99505.37;4421958;32;20101;-67
2022/12/31 06:18:41;;;;;;;197.70;24.60;;;;;;;3.80;100.00;99496.44;4421617;32;20090;-67
2022/12/31 06:21:08;;;;;;;96.85;18.50;;;;;;;3.87;100.00;99490.03;4426190;32;20500;-67
2022/12/31 06:23:35;;;;;;;192.65;22.62;;;;;;;3.93;100.00;99494.06;4437032;32;20101;-67
2022/12/31 06:26:03;;;;;;;191.15;20.85;;;;;;;3.85;100.00;99504.81;4437151;32;20110;-67
2022/12/31 06:28:30;;;;;;;136.95;20.60;;;;;;;3.89;100.00;99501.16;4437030;32;20469;-68
2022/12/31 06:31:02;;;;;;;142.15;20.50;;;;;;;3.84;100.00;99505.72;4437088;32;20113;-67
2022/12/31 06:33:30;;;;;;;137.90;19.30;;;;;;;3.93;100.00;99499.25;4437285;32;20149;-67
2022/12/31 06:35:59;;;;;;;82.62;18.83;;;;;;;3.93;100.00;99513.03;4438706;32;20151;-68
2022/12/31 06:38:27;;;;;;;45.60;15.02;;;;;;;4.03;100.00;99509.09;4439064;32;20148;-68
2022/12/31 06:40:55;;;;;;;160.60;22.73;;;;;;;4.15;100.00;99499.84;4439381;32;20626;-68
2022/12/31 06:43:22;;;;;;;163.73;21.95;;;;;;;4.21;100.00;99502.12;4439159;32;20112;-68
2022/12/31 06:45:49;;;;;;;109.60;19.70;;;;;;;4.29;100.00;99504.31;4439208;32;20151;-68
2022/12/31 06:48:17;;;;;;;119.65;20.73;;;;;;;4.35;100.00;99505.78;4439429;32;20128;-68
2022/12/31 06:50:48;;;;;;;118.53;21.10;;;;;;;4.33;100.00;99505.84;4439219;32;20733;-68
2022/12/31 06:53:15;;;;;;;92.97;20.88;;;;;;;4.26;100.00;99502.72;4438916;32;20093;-68
2022/12/31 06:55:43;;;;;;;79.62;20.52;;;;;;;4.26;100.00;99509.66;4439098;32;20146;-68
2022/12/31 06:58:14;;;;;;;92.95;18.65;;;;;;;4.35;100.00;99501.41;4439033;32;20090;-68
2022/12/31 07:00:51;;;;;;;81.55;19.10;;;;;;;4.28;100.00;99502.62;4439247;32;20138;-68
2022/12/31 07:03:24;;;;;;;78.00;18.90;;;;;;;4.25;100.00;99505.37;4439201;32;20142;-68
2022/12/31 07:06:08;;;;;;;97.55;18.27;;;;;;;4.28;100.00;99510.41;4439241;32;20518;-68
2022/12/31 07:08:39;;;;;;;73.22;16.67;;;;;;;4.26;100.00;99515.69;4437975;32;20097;-68
2022/12/31 07:11:23;;;;;;;55.63;15.68;;;;;;;4.41;100.00;99515.81;4423715;32;20116;-68
2022/12/31 07:14:14;;;;;;;46.53;14.85;;;;;;;4.43;100.00;99520.00;4423716;32;20625;-68
2022/12/31 07:17:01;;;;;;;81.20;20.12;;;;;;;4.42;100.00;99517.47;4423520;32;20522;-68
2022/12/31 07:19:34;;;;;;;74.62;19.42;;;;;;;4.46;100.00;99516.41;4423444;32;20146;-68
2022/12/31 07:22:02;;;;;;;69.53;17.20;;;;;;;4.57;100.00;99526.22;4433927;32;20534;-68
2022/12/31 07:24:29;;;;;;;61.37;17.65;;;;;;;4.52;100.00;99521.28;4438711;32;20348;-68
2022/12/31 07:26:59;;;;;;;56.90;17.42;;;;;;;4.52;100.00;99529.06;4438942;32;20090;-68
2022/12/31 07:29:51;;;;;;;55.17;16.98;;;;;;;4.56;100.00;99529.75;4438964;32;20097;-68
2022/12/31 07:32:45;;;;;;;47.88;17.05;;;;;;;4.68;100.00;99533.44;4439141;32;20081;-68
2022/12/31 07:35:22;;;;;;;53.95;17.52;;;;;;;4.82;100.00;99528.37;4438975;32;20182;-68
2022/12/31 07:38:09;;;;;;;51.95;17.48;;;;;;;4.88;100.00;99525.47;4438829;32;20085;-68
2022/12/31 07:40:51;;;;;;;74.65;18.80;;;;;;;5.08;100.00;99524.38;4438959;32;20094;-68
2022/12/31 07:43:30;;;;;;;70.12;19.27;;;;;;;4.89;100.00;99536.66;4425002;32;20172;-68
2022/12/31 07:46:21;;;;;;;59.22;20.25;;;;;;;4.90;100.00;99539.19;4438088;32;20116;-68
2022/12/31 07:48:48;;;;;;;88.43;23.20;;;;;;;5.04;100.00;99535.87;4424949;32;20085;-68
2022/12/31 07:51:16;;;;;;;77.93;20.25;;;;;;;5.01;100.00;99546.41;4438836;32;20105;-68
2022/12/31 07:53:43;;;;;;;79.07;20.02;;;;;;;4.93;100.00;99549.41;4438678;32;20154;-68
2022/12/31 07:56:10;;;;;;;73.57;21.25;;;;;;;4.94;100.00;99550.25;4438682;32;20093;-68
2022/12/31 07:58:38;;;;;;;70.82;19.30;;;;;;;5.10;100.00;99561.50;4424669;32;20176;-68
2022/12/31 08:01:10;;;;;;;81.45;20.73;;;;;;;5.10;100.00;99545.06;4436006;32;84152;-68
2022/12/31 08:03:59;;;;;;;100.53;22.80;;;;;;;5.25;100.00;99554.62;4438766;32;20132;-68
2022/12/31 08:06:35;;;;;;;67.87;18.12;;;;;;;5.40;100.00;99573.72;4438935;32;20086;-68
2022/12/31 08:09:16;;;;;;;64.50;22.02;;;;;;;5.46;100.00;99572.56;4434633;32;20180;-68
2022/12/31 08:11:51;;;;;;;65.55;19.87;;;;;;;5.68;100.00;99583.44;4409369;32;20120;-68
2022/12/31 08:14:19;;;;;;;58.33;20.48;;;;;;;5.81;100.00;99568.00;4409688;32;20149;-68
2022/12/31 08:16:46;;;;;;;79.50;22.40;;;;;;;5.94;100.00;99572.50;4422916;32;20119;-68
2022/12/31 08:19:23;;;;;;;85.62;22.08;;;;;;;5.81;100.00;99562.81;4422992;32;20470;-68
2022/12/31 08:22:04;;;;;;;66.30;20.40;;;;;;;5.95;100.00;99571.56;4431983;32;20173;-68
2022/12/31 08:25:09;;;;;;;72.72;22.00;;;;;;;5.80;100.00;99586.28;4438502;32;20090;-68
2022/12/31 08:27:40;;;;;;;73.20;23.75;;;;;;;5.85;100.00;99592.88;4438505;32;20152;-68
2022/12/31 08:30:11;;;;;;;76.10;23.17;;;;;;;5.93;100.00;99607.22;4438756;32;20081;-68
2022/12/31 08:32:51;;;;;;;76.60;24.50;;;;;;;5.99;100.00;99619.91;4424698;32;20232;-69
2022/12/31 08:35:24;;;;;;;62.53;20.95;;;;;;;5.97;100.00;99619.16;4438525;32;20089;-68
2022/12/31 08:37:55;;;;;;;;;;;;;;;6.17;100.00;99620.63;4424988;32;20597;-68
2022/12/31 08:40:48;;;;;;;61.03;19.92;;;;;;;6.25;100.00;99638.41;4438953;32;19989;-68
2022/12/31 08:43:32;;;;;;;59.35;21.73;;;;;;;6.32;100.00;99637.94;4375614;32;20174;-68
2022/12/31 08:45:59;;;;;;;67.30;23.27;;;;;;;6.36;100.00;99636.84;4362855;32;20154;-69
2022/12/31 08:48:33;;;;;;;63.15;21.92;;;;;;;6.44;100.00;99628.59;4363052;32;20173;-68
2022/12/31 08:51:00;;;;;;;63.20;22.55;;;;;;;6.47;100.00;99648.41;4375300;32;20645;-69
2022/12/31 08:53:28;;;;;;;61.25;21.35;;;;;;;6.64;100.00;99660.44;4375074;32;20477;-69
2022/12/31 08:56:00;;;;;;;66.60;21.98;;;;;;;6.76;100.00;99631.06;4375295;32;20159;-69
2022/12/31 08:58:39;;;;;;;59.50;21.92;;;;;;;7.06;100.00;99662.25;4374776;32;20179;-69
2022/12/31 09:01:07;;;;;;;54.45;19.92;;;;;;;7.09;100.00;99676.88;4362901;32;20086;-68
2022/12/31 09:03:47;;;;;;;69.68;23.67;;;;;;;7.06;100.00;99670.06;4362863;32;20110;-68
2022/12/31 09:06:16;;;;;;;61.70;21.92;;;;;;;6.92;100.00;99655.28;4375108;32;20091;-69
2022/12/31 09:08:50;;;;;;;79.20;24.33;;;;;;;6.87;100.00;99662.53;4373235;32;20594;-68
2022/12/31 09:11:44;;;;;;;;;;;;;;;6.83;100.00;99655.81;4360322;32;20260;-68
2022/12/31 09:14:24;;;;;;;66.37;23.25;;;;;;;6.75;100.00;99647.59;4359382;32;20037;-68
2022/12/31 09:17:28;;;;;;;70.28;23.98;;;;;;;6.76;100.00;99623.25;4359869;32;20528;-68
2022/12/31 09:19:56;;;;;;;66.32;24.00;;;;;;;6.74;100.00;99630.34;4380127;32;20157;-68
2022/12/31 09:22:23;;;;;;;71.15;22.90;;;;;;;6.78;100.00;99626.59;4434889;32;20145;-69
2022/12/31 09:24:50;;;;;;;73.50;24.20;;;;;;;6.76;100.00;99625.84;4438015;32;20520;-68
2022/12/31 09:27:23;;;;;;;63.08;21.10;;;;;;;6.82;100.00;99615.06;4438037;32;20147;-69
2022/12/31 09:30:09;;;;;;;62.08;23.10;;;;;;;6.83;100.00;99608.94;4424689;32;20089;-69
2022/12/31 09:32:52;;;;;;;69.12;21.87;;;;;;;7.00;100.00;99612.28;4438098;32;20504;-69
2022/12/31 09:35:51;;;;;;;64.12;22.25;;;;;;;7.10;100.00;99610.78;4438003;32;20093;-69
2022/12/31 09:38:44;;;;;;;51.58;21.27;;;;;;;7.15;100.00;99603.53;4437849;32;20149;-69
2022/12/31 09:41:52;;;;;;;65.80;22.80;;;;;;;7.41;100.00;99598.47;4424280;32;20142;-69
2022/12/31 09:44:31;;;;;;;72.20;24.33;;;;;;;7.57;100.00;99599.19;4438003;32;20119;-69
2022/12/31 09:47:28;;;;;;;66.03;24.45;;;;;;;7.74;100.00;99603.31;4438101;32;20105;-69
2022/12/31 09:49:55;;;;;;;54.25;20.67;;;;;;;7.85;100.00;99597.41;4419273;32;20609;-69
2022/12/31 09:52:37;;;;;;;64.37;21.98;;;;;;;7.72;100.00;99601.72;4437789;32;20108;-69
2022/12/31 09:55:12;;;;;;;52.55;19.90;;;;;;;7.67;100.00;99598.59;4437897;32;20104;-69
2022/12/31 09:57:46;;;;;;;61.58;23.65;;;;;;;7.87;100.00;99582.47;4437465;32;20097;-69
2022/12/31 10:00:24;;;;;;;62.80;24.10;;;;;;;7.92;100.00;99579.59;4423869;32;20170;-69
2022/12/31 10:02:58;;;;;;;62.78;22.92;;;;;;;7.97;100.00;99587.94;4423674;32;20195;-69
2022/12/31 10:05:37;;;;;;;64.18;23.92;;;;;;;8.04;100.00;99586.62;4437733;32;20073;-69
2022/12/31 10:08:26;;;;;;;59.67;23.25;;;;;;;8.23;100.00;99596.66;4437542;32;20174;-69
2022/12/31 10:10:57;;;;;;;62.95;22.73;;;;;;;8.39;100.00;99600.84;4408397;32;20159;-69
2022/12/31 10:13:40;;;;;;;71.40;26.20;;;;;;;8.58;100.00;99603.09;4407421;32;20512;-69
2022/12/31 10:16:15;;;;;;;77.93;27.92;;;;;;;8.63;100.00;99604.47;4408666;32;20145;-69
2022/12/31 10:19:20;;;;;;;74.68;28.20;;;;;;;8.62;100.00;99597.56;4407264;32;20379;-69
2022/12/31 10:22:17;;;;;;;80.65;27.60;;;;;;;8.60;100.00;99606.44;4425598;32;20529;-70
2022/12/31 10:25:21;;;;;;;73.53;24.40;;;;;;;8.44;100.00;99591.00;4439479;32;20146;-69
2022/12/31 10:28:18;;;;;;;65.75;23.75;;;;;;;8.35;100.00;99601.06;4439489;32;20089;-69
2022/12/31 10:31:03;;;;;;;61.72;23.27;;;;;;;8.31;100.00;99596.16;4439621;32;20155;-69
2022/12/31 10:33:54;;;;;;;60.10;23.38;;;;;;;8.21;100.00;99577.66;4426001;32;20123;-69
2022/12/31 10:36:43;;;;;;;57.65;23.48;;;;;;;8.34;100.00;99578.53;4425449;32;20356;-69
2022/12/31 10:39:18;;;;;;;60.05;23.65;;;;;;;8.40;100.00;99577.25;4439164;32;20620;-69
2022/12/31 10:42:09;;;;;;;61.13;23.95;;;;;;;8.27;100.00;99572.03;4426013;32;20150;-69
2022/12/31 10:44:48;;;;;;;57.25;24.25;;;;;;;8.17;100.00;99579.66;4439328;32;20133;-69
2022/12/31 10:47:47;;;;;;;60.35;23.70;;;;;;;8.13;100.00;99580.78;4439169;32;20085;-69
2022/12/31 10:50:27;;;;;;;51.53;21.48;;;;;;;8.05;100.00;99593.47;4439430;32;20104;-69
2022/12/31 10:53:16;;;;;;;49.35;19.65;;;;;;;7.94;100.00;99596.81;4439149;32;20116;-69
2022/12/31 10:56:06;;;;;;;48.05;21.37;;;;;;;7.95;100.00;99608.91;4439300;32;20078;-69
2022/12/31 10:58:52;;;;;;;47.58;20.08;;;;;;;8.05;100.00;99592.66;4439029;32;20126;-69
2022/12/31 11:01:33;;;;;;;49.97;20.20;;;;;;;8.15;100.00;99591.94;4439123;32;20561;-69
2022/12/31 11:04:52;;;;;;;46.33;20.27;;;;;;;8.11;100.00;99598.31;4439282;32;20089;-70
2022/12/31 11:07:54;;;;;;;47.67;20.50;;;;;;;7.94;100.00;99583.75;4375625;32;20185;-69
2022/12/31 11:11:00;;;;;;;45.63;20.33;;;;;;;7.94;100.00;99575.94;4363866;32;20680;-69
2022/12/31 11:13:27;;;;;;;48.30;18.92;;;;;;;7.80;100.00;99578.62;4360802;32;20117;-69
2022/12/31 11:16:16;;;;;;;49.78;19.92;;;;;;;7.73;100.00;99587.75;4360985;32;20111;-69
2022/12/31 11:18:58;;;;;;;46.33;21.02;;;;;;;7.89;100.00;99577.16;4360624;32;20111;-69
2022/12/31 11:22:07;;;;;;;54.45;21.83;;;;;;;8.09;100.00;99576.69;4366528;32;20194;-70
2022/12/31 11:25:10;;;;;;;48.60;19.35;;;;;;;8.20;100.00;99570.75;4331061;33;20180;-69
2022/12/31 11:27:40;;;;;;;47.47;20.92;;;;;;;8.26;100.00;99562.53;4329479;33;20127;-69
2022/12/31 11:30:40;;;;;;;54.22;21.73;;;;;;;8.34;100.00;99568.09;4331214;33;20553;-69
2022/12/31 11:33:30;;;;;;;49.95;18.98;;;;;;;8.09;100.00;99565.44;4316503;33;20115;-70
2022/12/31 11:36:32;;;;;;;46.22;20.02;;;;;;;8.14;100.00;99579.00;4316687;33;20151;-70
2022/12/31 11:39:29;;;;;;;48.85;19.35;;;;;;;8.35;100.00;99568.91;4304801;33;20839;-69
2022/12/31 11:42:20;;;;;;;48.35;18.40;;;;;;;8.48;100.00;99566.34;4319679;32;20139;-70
2022/12/31 11:45:03;;;;;;;44.30;19.58;;;;;;;8.51;100.00;99553.09;4375449;32;20102;-70
2022/12/31 11:47:57;;;;;;;45.58;17.70;;;;;;;8.58;100.00;99554.31;4375609;32;20157;-70
2022/12/31 11:51:00;;;;;;;42.53;18.73;;;;;;;8.63;100.00;99538.31;4365177;32;20137;-69
2022/12/31 11:53:41;;;;;;;43.17;19.12;;;;;;;8.79;100.00;99525.88;4375558;32;20443;-69
2022/12/31 11:56:15;;;;;;;46.42;18.90;;;;;;;8.92;100.00;99549.38;4363512;32;20562;-69